createdAt,value
2016-07-08T00:00:14.812Z,1009.48
2016-07-08T00:01:14.803Z,1009.5
2016-07-08T00:02:14.793Z,1009.51
2016-07-08T00:03:14.785Z,1009.48
2016-07-08T00:04:14.772Z,1009.5
2016-07-08T00:05:14.765Z,1009.48
2016-07-08T00:06:14.754Z,1009.45
2016-07-08T00:07:14.742Z,1009.43
2016-07-08T00:08:14.730Z,1009.39
2016-07-08T00:09:14.721Z,1009.35
2016-07-08T00:10:14.711Z,1009.33
2016-07-08T00:11:14.701Z,1009.32
2016-07-08T00:12:14.692Z,1009.36
2016-07-08T00:13:14.681Z,1009.35
2016-07-08T00:14:14.671Z,1009.33
2016-07-08T00:15:14.662Z,1009.36
2016-07-08T00:16:14.655Z,1009.34
2016-07-08T00:17:14.639Z,1009.32
2016-07-08T00:18:14.629Z,1009.32
2016-07-08T00:19:14.826Z,1009.32
2016-07-08T00:20:14.610Z,1009.37
2016-07-08T00:21:14.599Z,1009.39
2016-07-08T00:22:14.598Z,1009.42
2016-07-08T00:23:14.579Z,1009.38
2016-07-08T00:24:14.569Z,1009.39
2016-07-08T00:25:14.557Z,1009.36
2016-07-08T00:26:14.597Z,1009.33
2016-07-08T00:27:14.537Z,1009.38
2016-07-08T00:28:14.526Z,1009.37
2016-07-08T00:29:14.519Z,1009.36
2016-07-08T00:30:14.507Z,1009.43
2016-07-08T00:31:14.499Z,1009.39
2016-07-08T00:32:14.486Z,1009.4
2016-07-08T00:33:14.476Z,1009.38
2016-07-08T00:34:14.468Z,1009.37
2016-07-08T00:35:14.458Z,1009.35
2016-07-08T00:36:14.444Z,1009.32
2016-07-08T00:37:14.436Z,1009.32
2016-07-08T00:38:14.426Z,1009.34
2016-07-08T00:39:14.418Z,1009.27
2016-07-08T00:40:14.405Z,1009.28
2016-07-08T00:41:14.395Z,1009.26
2016-07-08T00:42:14.386Z,1009.28
2016-07-08T00:43:14.376Z,1009.29
2016-07-08T00:44:14.365Z,1009.31
2016-07-08T00:45:14.356Z,1009.28
2016-07-08T00:46:14.347Z,1009.27
2016-07-08T00:47:14.336Z,1009.28
2016-07-08T00:48:14.323Z,1009.27
2016-07-08T00:49:14.317Z,1009.24
2016-07-08T00:50:14.304Z,1009.28
2016-07-08T00:51:14.298Z,1009.24
2016-07-08T00:52:14.286Z,1009.23
2016-07-08T00:53:14.274Z,1009.25
2016-07-08T00:54:14.264Z,1009.21
2016-07-08T00:55:14.255Z,1009.26
2016-07-08T00:56:14.244Z,1009.21
2016-07-08T00:57:14.233Z,1009.17
2016-07-08T00:58:14.226Z,1009.16
2016-07-08T00:59:14.216Z,1009.14
2016-07-08T01:00:14.207Z,1009.09
2016-07-08T01:01:14.195Z,1009.1
2016-07-08T01:02:14.184Z,1009.02
2016-07-08T01:03:14.175Z,1009.01
2016-07-08T01:04:14.165Z,1009.01
2016-07-08T01:05:14.155Z,1008.99
2016-07-08T01:06:14.142Z,1008.95
2016-07-08T01:07:14.135Z,1008.97
2016-07-08T01:08:14.122Z,1008.88
2016-07-08T01:09:14.113Z,1008.92
2016-07-08T01:10:14.107Z,1008.87
2016-07-08T01:11:14.091Z,1008.89
2016-07-08T01:12:14.081Z,1008.9
2016-07-08T01:13:14.070Z,1008.9
2016-07-08T01:14:14.060Z,1008.88
2016-07-08T01:15:14.052Z,1008.87
2016-07-08T01:16:14.040Z,1008.89
2016-07-08T01:17:14.030Z,1008.86
2016-07-08T01:18:14.021Z,1008.83
2016-07-08T01:19:14.009Z,1008.81
2016-07-08T01:20:14.001Z,1008.83
2016-07-08T01:21:13.990Z,1008.86
2016-07-08T01:22:13.980Z,1008.82
2016-07-08T01:23:13.969Z,1008.83
2016-07-08T01:24:13.958Z,1008.83
2016-07-08T01:25:13.953Z,1008.87
2016-07-08T01:26:13.939Z,1008.83
2016-07-08T01:27:13.927Z,1008.84
2016-07-08T01:28:13.917Z,1008.84
2016-07-08T01:29:13.908Z,1008.82
2016-07-08T01:30:13.900Z,1008.81
2016-07-08T01:31:13.890Z,1008.8
2016-07-08T01:32:13.876Z,1008.76
2016-07-08T01:33:13.868Z,1008.79
2016-07-08T01:34:13.857Z,1008.78
2016-07-08T01:35:13.848Z,1008.77
2016-07-08T01:36:13.838Z,1008.75
2016-07-08T01:37:13.828Z,1008.71
2016-07-08T01:38:13.817Z,1008.76
2016-07-08T01:39:13.808Z,1008.73
2016-07-08T01:40:13.801Z,1008.69
2016-07-08T01:41:13.784Z,1008.67
2016-07-08T01:42:13.775Z,1008.65
2016-07-08T01:43:13.771Z,1008.68
2016-07-08T01:44:13.756Z,1008.66
2016-07-08T01:45:13.748Z,1008.66
2016-07-08T01:46:13.734Z,1008.62
2016-07-08T01:47:13.725Z,1008.57
2016-07-08T01:48:13.715Z,1008.62
2016-07-08T01:49:13.703Z,1008.56
2016-07-08T01:50:13.693Z,1008.58
2016-07-08T01:51:13.684Z,1008.58
2016-07-08T01:52:13.674Z,1008.52
2016-07-08T01:53:13.664Z,1008.52
2016-07-08T01:54:13.654Z,1008.52
2016-07-08T01:55:13.645Z,1008.51
2016-07-08T01:56:13.633Z,1008.51
2016-07-08T01:57:13.621Z,1008.54
2016-07-08T01:58:13.613Z,1008.52
2016-07-08T01:59:13.601Z,1008.49
2016-07-08T02:00:13.592Z,1008.53
2016-07-08T02:01:13.581Z,1008.51
2016-07-08T02:02:13.571Z,1008.46
2016-07-08T02:03:13.561Z,1008.42
2016-07-08T02:04:13.601Z,1008.41
2016-07-08T02:05:13.541Z,1008.38
2016-07-08T02:06:13.529Z,1008.37
2016-07-08T02:07:13.521Z,1008.35
2016-07-08T02:08:13.511Z,1008.34
2016-07-08T02:09:13.499Z,1008.36
2016-07-08T02:10:13.490Z,1008.29
2016-07-08T02:11:13.478Z,1008.31
2016-07-08T02:12:13.469Z,1008.25
2016-07-08T02:13:13.459Z,1008.27
2016-07-08T02:14:13.447Z,1008.25
2016-07-08T02:15:13.438Z,1008.24
2016-07-08T02:16:13.427Z,1008.24
2016-07-08T02:17:13.417Z,1008.24
2016-07-08T02:18:13.405Z,1008.24
2016-07-08T02:19:13.598Z,1008.22
2016-07-08T02:20:13.386Z,1008.16
2016-07-08T02:21:13.374Z,1008.2
2016-07-08T02:22:13.365Z,1008.14
2016-07-08T02:23:13.353Z,1008.14
2016-07-08T02:24:13.343Z,1008.13
2016-07-08T02:25:13.332Z,1008.12
2016-07-08T02:26:13.336Z,1008.1
2016-07-08T02:27:13.312Z,1008.1
2016-07-08T02:28:13.303Z,1008.11
2016-07-08T02:29:13.290Z,1008.1
2016-07-08T02:30:13.280Z,1008.07
2016-07-08T02:31:13.272Z,1008.05
2016-07-08T02:32:13.263Z,1008.03
2016-07-08T02:33:13.252Z,1008.05
2016-07-08T02:34:13.240Z,1008.02
2016-07-08T02:35:13.231Z,1008.06
2016-07-08T02:36:13.220Z,1008.02
2016-07-08T02:37:13.211Z,1008.01
2016-07-08T02:38:13.202Z,1008
2016-07-08T02:39:13.190Z,1007.98
2016-07-08T02:40:13.178Z,1007.95
2016-07-08T02:41:13.169Z,1007.96
2016-07-08T02:42:13.157Z,1007.94
2016-07-08T02:43:13.148Z,1007.95
2016-07-08T02:44:13.141Z,1007.93
2016-07-08T02:45:13.127Z,1007.94
2016-07-08T02:46:13.118Z,1007.97
2016-07-08T02:47:13.106Z,1007.97
2016-07-08T02:48:13.096Z,1007.96
2016-07-08T02:49:13.086Z,1007.94
2016-07-08T02:50:13.076Z,1007.9
2016-07-08T02:51:13.066Z,1007.83
2016-07-08T02:52:13.054Z,1007.89
2016-07-08T02:53:13.045Z,1007.88
2016-07-08T02:54:13.035Z,1007.9
2016-07-08T02:55:13.024Z,1007.94
2016-07-08T02:56:13.014Z,1007.9
2016-07-08T02:57:13.004Z,1007.89
2016-07-08T02:58:12.993Z,1007.93
2016-07-08T02:59:12.983Z,1007.9
2016-07-08T03:00:12.974Z,1007.9
2016-07-08T03:01:12.964Z,1007.9
2016-07-08T03:02:12.951Z,1007.9
2016-07-08T03:03:12.944Z,1007.91
2016-07-08T03:04:12.932Z,1007.92
2016-07-08T03:05:12.920Z,1007.91
2016-07-08T03:06:12.908Z,1007.92
2016-07-08T03:07:12.900Z,1007.91
2016-07-08T03:08:12.890Z,1007.95
2016-07-08T03:09:12.878Z,1007.92
2016-07-08T03:10:12.869Z,1007.89
2016-07-08T03:11:12.858Z,1007.89
2016-07-08T03:12:12.847Z,1007.93
2016-07-08T03:13:12.836Z,1007.9
2016-07-08T03:14:12.825Z,1007.89
2016-07-08T03:15:12.815Z,1007.87
2016-07-08T03:16:12.805Z,1007.83
2016-07-08T03:17:12.794Z,1007.85
2016-07-08T03:18:12.784Z,1007.83
2016-07-08T03:19:12.775Z,1007.87
2016-07-08T03:20:12.762Z,1007.88
2016-07-08T03:21:12.753Z,1007.88
2016-07-08T03:22:12.743Z,1007.91
2016-07-08T03:23:12.731Z,1007.85
2016-07-08T03:24:12.721Z,1007.83
2016-07-08T03:25:12.710Z,1007.8
2016-07-08T03:26:12.700Z,1007.76
2016-07-08T03:27:12.688Z,1007.77
2016-07-08T03:28:12.679Z,1007.77
2016-07-08T03:29:12.668Z,1007.77
2016-07-08T03:30:12.658Z,1007.79
2016-07-08T03:31:12.647Z,1007.78
2016-07-08T03:32:12.636Z,1007.78
2016-07-08T03:33:12.625Z,1007.8
2016-07-08T03:34:12.617Z,1007.8
2016-07-08T03:35:12.604Z,1007.79
2016-07-08T03:36:12.593Z,1007.79
2016-07-08T03:37:12.583Z,1007.77
2016-07-08T03:38:12.573Z,1007.77
2016-07-08T03:39:12.562Z,1007.75
2016-07-08T03:40:12.561Z,1007.7
2016-07-08T03:41:12.543Z,1007.72
2016-07-08T03:42:12.585Z,1007.72
2016-07-08T03:43:12.524Z,1007.73
2016-07-08T03:44:12.509Z,1007.71
2016-07-08T03:45:12.499Z,1007.7
2016-07-08T03:46:12.488Z,1007.7
2016-07-08T03:47:12.476Z,1007.67
2016-07-08T03:48:12.467Z,1007.71
2016-07-08T03:49:12.456Z,1007.67
2016-07-08T03:50:12.444Z,1007.68
2016-07-08T03:51:12.436Z,1007.62
2016-07-08T03:52:12.425Z,1007.59
2016-07-08T03:53:12.412Z,1007.56
2016-07-08T03:54:12.404Z,1007.56
2016-07-08T03:55:12.391Z,1007.57
2016-07-08T03:56:12.382Z,1007.54
2016-07-08T03:57:12.370Z,1007.56
2016-07-08T03:58:12.360Z,1007.54
2016-07-08T03:59:12.350Z,1007.51
2016-07-08T04:00:12.340Z,1007.49
2016-07-08T04:01:12.328Z,1007.5
2016-07-08T04:02:12.321Z,1007.53
2016-07-08T04:03:12.307Z,1007.5
2016-07-08T04:04:12.295Z,1007.54
2016-07-08T04:05:12.286Z,1007.54
2016-07-08T04:06:12.275Z,1007.5
2016-07-08T04:07:12.264Z,1007.52
2016-07-08T04:08:12.256Z,1007.52
2016-07-08T04:09:12.244Z,1007.56
2016-07-08T04:10:12.233Z,1007.54
2016-07-08T04:11:12.222Z,1007.55
2016-07-08T04:12:12.212Z,1007.54
2016-07-08T04:13:12.201Z,1007.6
2016-07-08T04:14:12.192Z,1007.57
2016-07-08T04:15:12.180Z,1007.55
2016-07-08T04:16:12.169Z,1007.53
2016-07-08T04:17:12.158Z,1007.52
2016-07-08T04:18:12.146Z,1007.53
2016-07-08T04:19:12.338Z,1007.53
2016-07-08T04:20:12.127Z,1007.45
2016-07-08T04:21:12.116Z,1007.48
2016-07-08T04:22:12.104Z,1007.47
2016-07-08T04:23:12.094Z,1007.47
2016-07-08T04:24:12.085Z,1007.44
2016-07-08T04:25:12.073Z,1007.48
2016-07-08T04:26:12.062Z,1007.42
2016-07-08T04:27:12.052Z,1007.39
2016-07-08T04:28:12.042Z,1007.38
2016-07-08T04:29:12.031Z,1007.4
2016-07-08T04:30:12.020Z,1007.42
2016-07-08T04:31:12.011Z,1007.39
2016-07-08T04:32:11.999Z,1007.39
2016-07-08T04:33:11.991Z,1007.41
2016-07-08T04:34:11.978Z,1007.37
2016-07-08T04:35:11.966Z,1007.33
2016-07-08T04:36:11.957Z,1007.3
2016-07-08T04:37:11.948Z,1007.27
2016-07-08T04:38:11.936Z,1007.28
2016-07-08T04:39:11.926Z,1007.24
2016-07-08T04:40:11.914Z,1007.26
2016-07-08T04:41:11.904Z,1007.31
2016-07-08T04:42:11.895Z,1007.26
2016-07-08T04:43:11.883Z,1007.25
2016-07-08T04:44:11.872Z,1007.21
2016-07-08T04:45:11.862Z,1007.19
2016-07-08T04:46:11.852Z,1007.17
2016-07-08T04:47:11.845Z,1007.15
2016-07-08T04:48:11.834Z,1007.16
2016-07-08T04:49:11.823Z,1007.15
2016-07-08T04:50:11.812Z,1007.1
2016-07-08T04:51:11.801Z,1007.08
2016-07-08T04:52:11.791Z,1007.07
2016-07-08T04:53:11.781Z,1007.06
2016-07-08T04:54:11.772Z,1007.05
2016-07-08T04:55:11.762Z,1007
2016-07-08T04:56:11.758Z,1007
2016-07-08T04:57:11.743Z,1006.98
2016-07-08T04:58:11.732Z,1007
2016-07-08T04:59:11.722Z,1006.97
2016-07-08T05:00:11.713Z,1006.98
2016-07-08T05:01:11.706Z,1006.96
2016-07-08T05:02:11.694Z,1006.92
2016-07-08T05:03:11.684Z,1006.9
2016-07-08T05:04:11.673Z,1006.86
2016-07-08T05:05:11.662Z,1006.87
2016-07-08T05:06:11.651Z,1006.85
2016-07-08T05:07:11.642Z,1006.88
2016-07-08T05:08:11.633Z,1006.88
2016-07-08T05:09:11.627Z,1006.9
2016-07-08T05:10:11.618Z,1006.88
2016-07-08T05:11:11.606Z,1006.86
2016-07-08T05:12:11.593Z,1006.83
2016-07-08T05:13:11.585Z,1006.85
2016-07-08T05:14:11.572Z,1006.86
2016-07-08T05:15:11.565Z,1006.86
2016-07-08T05:16:11.553Z,1006.84
2016-07-08T05:17:11.544Z,1006.85
2016-07-08T05:18:11.533Z,1006.87
2016-07-08T05:19:11.523Z,1006.85
2016-07-08T05:20:11.514Z,1006.85
2016-07-08T05:21:11.503Z,1006.87
2016-07-08T05:22:11.498Z,1006.88
2016-07-08T05:23:11.484Z,1006.86
2016-07-08T05:24:11.473Z,1006.89
2016-07-08T05:25:11.463Z,1006.89
2016-07-08T05:26:11.456Z,1006.87
2016-07-08T05:27:11.444Z,1006.9
2016-07-08T05:28:11.442Z,1006.89
2016-07-08T05:29:11.423Z,1006.89
2016-07-08T05:30:11.415Z,1006.86
2016-07-08T05:31:11.406Z,1006.88
2016-07-08T05:32:11.394Z,1006.84
2016-07-08T05:33:11.385Z,1006.8
2016-07-08T05:34:11.375Z,1006.82
2016-07-08T05:35:11.366Z,1006.83
2016-07-08T05:36:11.356Z,1006.81
2016-07-08T05:37:11.345Z,1006.81
2016-07-08T05:38:11.341Z,1006.78
2016-07-08T05:39:11.330Z,1006.77
2016-07-08T05:40:11.317Z,1006.78
2016-07-08T05:41:11.356Z,1006.81
2016-07-08T05:42:11.299Z,1006.82
2016-07-08T05:43:11.288Z,1006.86
2016-07-08T05:44:11.279Z,1006.89
2016-07-08T05:45:11.268Z,1006.91
2016-07-08T05:46:11.258Z,1006.92
2016-07-08T05:47:11.249Z,1006.94
2016-07-08T05:48:11.240Z,1006.97
2016-07-08T05:49:11.240Z,1006.98
2016-07-08T05:50:11.219Z,1006.97
2016-07-08T05:51:11.210Z,1006.91
2016-07-08T05:52:11.200Z,1006.87
2016-07-08T05:53:11.193Z,1006.89
2016-07-08T05:54:11.184Z,1006.84
2016-07-08T05:55:11.172Z,1006.85
2016-07-08T05:56:11.163Z,1006.83
2016-07-08T05:57:11.156Z,1006.83
2016-07-08T05:58:11.144Z,1006.83
2016-07-08T05:59:11.140Z,1006.83
2016-07-08T06:00:11.134Z,1006.87
2016-07-08T06:01:11.115Z,1006.85
2016-07-08T06:02:11.104Z,1006.88
2016-07-08T06:03:11.097Z,1006.89
2016-07-08T06:04:11.086Z,1006.89
2016-07-08T06:05:11.076Z,1006.89
2016-07-08T06:06:11.071Z,1006.86
2016-07-08T06:07:11.060Z,1006.85
2016-07-08T06:08:11.051Z,1006.87
2016-07-08T06:09:11.041Z,1006.82
2016-07-08T06:10:11.031Z,1006.83
2016-07-08T06:11:11.021Z,1006.86
2016-07-08T06:12:11.012Z,1006.85
2016-07-08T06:13:11.005Z,1006.82
2016-07-08T06:14:10.997Z,1006.8
2016-07-08T06:15:10.986Z,1006.76
2016-07-08T06:16:10.978Z,1006.8
2016-07-08T06:17:10.968Z,1006.81
2016-07-08T06:18:10.960Z,1006.78
2016-07-08T06:19:11.156Z,1006.78
2016-07-08T06:20:10.943Z,1006.76
2016-07-08T06:21:10.934Z,1006.77
2016-07-08T06:22:10.933Z,1006.75
2016-07-08T06:23:10.920Z,1006.75
2016-07-08T06:24:10.908Z,1006.77
2016-07-08T06:25:10.913Z,1006.76
2016-07-08T06:26:10.891Z,1006.75
2016-07-08T06:27:10.883Z,1006.75
2016-07-08T06:28:10.874Z,1006.72
2016-07-08T06:29:10.865Z,1006.72
2016-07-08T06:30:10.856Z,1006.71
2016-07-08T06:31:10.848Z,1006.7
2016-07-08T06:32:10.838Z,1006.67
2016-07-08T06:33:10.830Z,1006.69
2016-07-08T06:34:10.821Z,1006.66
2016-07-08T06:35:10.813Z,1006.69
2016-07-08T06:36:10.804Z,1006.68
2016-07-08T06:37:10.795Z,1006.64
2016-07-08T06:38:10.788Z,1006.67
2016-07-08T06:39:10.780Z,1006.66
2016-07-08T06:40:10.771Z,1006.67
2016-07-08T06:41:10.762Z,1006.67
2016-07-08T06:42:10.754Z,1006.62
2016-07-08T06:43:10.747Z,1006.58
2016-07-08T06:44:10.738Z,1006.63
2016-07-08T06:45:10.730Z,1006.62
2016-07-08T06:46:10.720Z,1006.62
2016-07-08T06:47:10.711Z,1006.61
2016-07-08T06:48:10.704Z,1006.68
2016-07-08T06:49:10.694Z,1006.7
2016-07-08T06:50:10.686Z,1006.69
2016-07-08T06:51:10.678Z,1006.69
2016-07-08T06:52:10.669Z,1006.65
2016-07-08T06:53:10.661Z,1006.61
2016-07-08T06:54:10.653Z,1006.63
2016-07-08T06:55:10.647Z,1006.61
2016-07-08T06:56:10.637Z,1006.58
2016-07-08T06:57:10.628Z,1006.59
2016-07-08T06:58:10.622Z,1006.62
2016-07-08T06:59:10.612Z,1006.63
2016-07-08T07:00:10.607Z,1006.61
2016-07-08T07:01:10.599Z,1006.59
2016-07-08T07:02:10.591Z,1006.57
2016-07-08T07:03:10.580Z,1006.6
2016-07-08T07:04:10.574Z,1006.57
2016-07-08T07:05:10.566Z,1006.56
2016-07-08T07:06:10.558Z,1006.54
2016-07-08T07:07:10.552Z,1006.55
2016-07-08T07:08:10.542Z,1006.57
2016-07-08T07:09:10.537Z,1006.59
2016-07-08T07:10:10.528Z,1006.6
2016-07-08T07:11:10.521Z,1006.6
2016-07-08T07:12:10.512Z,1006.57
2016-07-08T07:13:10.507Z,1006.59
2016-07-08T07:14:10.501Z,1006.61
2016-07-08T07:15:10.490Z,1006.65
2016-07-08T07:16:10.484Z,1006.64
2016-07-08T07:17:10.475Z,1006.66
2016-07-08T07:18:10.468Z,1006.59
2016-07-08T07:19:10.461Z,1006.66
2016-07-08T07:20:10.453Z,1006.62
2016-07-08T07:21:10.446Z,1006.64
2016-07-08T07:22:10.438Z,1006.66
2016-07-08T07:23:10.434Z,1006.66
2016-07-08T07:24:10.426Z,1006.66
2016-07-08T07:25:10.416Z,1006.62
2016-07-08T07:26:10.409Z,1006.61
2016-07-08T07:27:10.403Z,1006.58
2016-07-08T07:28:10.393Z,1006.54
2016-07-08T07:29:10.386Z,1006.52
2016-07-08T07:30:10.381Z,1006.53
2016-07-08T07:31:10.374Z,1006.55
2016-07-08T07:32:10.366Z,1006.53
2016-07-08T07:33:10.359Z,1006.5
2016-07-08T07:34:10.353Z,1006.5
2016-07-08T07:35:10.342Z,1006.53
2016-07-08T07:36:10.334Z,1006.52
2016-07-08T07:37:10.329Z,1006.53
2016-07-08T07:38:10.320Z,1006.52
2016-07-08T07:39:10.311Z,1006.54
2016-07-08T07:40:10.306Z,1006.53
2016-07-08T07:41:10.297Z,1006.55
2016-07-08T07:42:10.291Z,1006.56
2016-07-08T07:43:10.282Z,1006.58
2016-07-08T07:44:10.277Z,1006.54
2016-07-08T07:45:10.266Z,1006.53
2016-07-08T07:46:10.265Z,1006.51
2016-07-08T07:47:10.251Z,1006.51
2016-07-08T07:48:10.246Z,1006.48
2016-07-08T07:49:10.237Z,1006.48
2016-07-08T07:50:10.231Z,1006.5
2016-07-08T07:51:10.223Z,1006.51
2016-07-08T07:52:10.216Z,1006.46
2016-07-08T07:53:10.208Z,1006.47
2016-07-08T07:54:10.200Z,1006.49
2016-07-08T07:55:10.192Z,1006.46
2016-07-08T07:56:10.185Z,1006.46
2016-07-08T07:57:10.179Z,1006.47
2016-07-08T07:58:10.169Z,1006.48
2016-07-08T07:59:10.162Z,1006.42
2016-07-08T08:00:10.156Z,1006.42
2016-07-08T08:01:10.150Z,1006.41
2016-07-08T08:02:10.140Z,1006.43
2016-07-08T08:03:10.137Z,1006.44
2016-07-08T08:04:10.129Z,1006.47
2016-07-08T08:05:10.120Z,1006.52
2016-07-08T08:06:10.109Z,1006.51
2016-07-08T08:07:10.103Z,1006.48
2016-07-08T08:08:10.097Z,1006.44
2016-07-08T08:09:10.088Z,1006.43
2016-07-08T08:10:10.079Z,1006.36
2016-07-08T08:11:10.074Z,1006.39
2016-07-08T08:12:10.065Z,1006.37
2016-07-08T08:13:10.059Z,1006.27
2016-07-08T08:14:10.050Z,1006.28
2016-07-08T08:15:10.045Z,1006.27
2016-07-08T08:16:10.035Z,1006.22
2016-07-08T08:17:10.029Z,1006.22
2016-07-08T08:18:10.022Z,1006.22
2016-07-08T08:19:10.217Z,1006.28
2016-07-08T08:20:10.007Z,1006.2
2016-07-08T08:21:10.001Z,1006.23
2016-07-08T08:22:09.994Z,1006.18
2016-07-08T08:23:09.985Z,1006.21
2016-07-08T08:24:09.979Z,1006.18
2016-07-08T08:25:09.971Z,1006.24
2016-07-08T08:26:09.965Z,1006.26
2016-07-08T08:27:10.007Z,1006.21
2016-07-08T08:28:09.952Z,1006.25
2016-07-08T08:29:09.947Z,1006.25
2016-07-08T08:30:09.936Z,1006.25
2016-07-08T08:31:09.928Z,1006.18
2016-07-08T08:32:09.921Z,1006.18
2016-07-08T08:33:09.914Z,1006.19
2016-07-08T08:34:09.907Z,1006.15
2016-07-08T08:35:09.903Z,1006.18
2016-07-08T08:36:09.893Z,1006.18
2016-07-08T08:37:09.885Z,1006.13
2016-07-08T08:38:09.877Z,1006.16
2016-07-08T08:39:09.870Z,1006.15
2016-07-08T08:40:09.863Z,1006.12
2016-07-08T08:41:09.858Z,1006.09
2016-07-08T08:42:09.848Z,1006.13
2016-07-08T08:43:09.843Z,1006.13
2016-07-08T08:44:09.835Z,1006.16
2016-07-08T08:45:09.826Z,1006.17
2016-07-08T08:46:09.831Z,1006.2
2016-07-08T08:47:09.811Z,1006.24
2016-07-08T08:48:09.810Z,1006.2
2016-07-08T08:49:09.796Z,1006.18
2016-07-08T08:50:09.792Z,1006.14
2016-07-08T08:51:09.785Z,1006.16
2016-07-08T08:52:09.773Z,1006.13
2016-07-08T08:53:09.767Z,1006.1
2016-07-08T08:54:09.760Z,1006.12
2016-07-08T08:55:09.752Z,1006.19
2016-07-08T08:56:09.744Z,1006.2
2016-07-08T08:57:09.737Z,1006.21
2016-07-08T08:58:09.729Z,1006.21
2016-07-08T08:59:09.723Z,1006.2
2016-07-08T09:00:09.713Z,1006.2
2016-07-08T09:01:09.708Z,1006.17
2016-07-08T09:02:09.700Z,1006.15
2016-07-08T09:03:09.690Z,1006.12
2016-07-08T09:04:09.684Z,1006.15
2016-07-08T09:05:09.676Z,1006.13
2016-07-08T09:06:09.675Z,1006.18
2016-07-08T09:07:09.661Z,1006.22
2016-07-08T09:08:09.656Z,1006.21
2016-07-08T09:09:09.647Z,1006.22
2016-07-08T09:10:09.642Z,1006.19
2016-07-08T09:11:09.632Z,1006.23
2016-07-08T09:12:09.625Z,1006.21
2016-07-08T09:13:09.618Z,1006.15
2016-07-08T09:14:09.610Z,1006.12
2016-07-08T09:15:09.602Z,1006.08
2016-07-08T09:16:09.597Z,1006.08
2016-07-08T09:17:09.587Z,1006.09
2016-07-08T09:18:09.582Z,1006.07
2016-07-08T09:19:09.574Z,1006.07
2016-07-08T09:20:09.566Z,1006.03
2016-07-08T09:21:09.560Z,1006.09
2016-07-08T09:22:09.551Z,1006.06
2016-07-08T09:23:09.544Z,1006.03
2016-07-08T09:24:09.541Z,1006.03
2016-07-08T09:25:09.537Z,1006.03
2016-07-08T09:26:09.523Z,1006.02
2016-07-08T09:27:09.518Z,1006.05
2016-07-08T09:28:09.507Z,1006
2016-07-08T09:29:09.503Z,1006
2016-07-08T09:30:09.494Z,1005.98
2016-07-08T09:31:09.487Z,1006.03
2016-07-08T09:32:09.478Z,1006.05
2016-07-08T09:33:09.473Z,1006.09
2016-07-08T09:34:09.467Z,1006.01
2016-07-08T09:35:09.456Z,1006.03
2016-07-08T09:36:09.451Z,1005.95
2016-07-08T09:37:09.443Z,1005.99
2016-07-08T09:38:09.487Z,1005.95
2016-07-08T09:39:09.430Z,1005.98
2016-07-08T09:40:09.422Z,1006
2016-07-08T09:41:09.416Z,1006
2016-07-08T09:42:09.411Z,1006.03
2016-07-08T09:43:09.404Z,1006.01
2016-07-08T09:44:09.395Z,1006.02
2016-07-08T09:45:09.388Z,1005.97
2016-07-08T09:46:09.381Z,1006
2016-07-08T09:47:09.374Z,1006.06
2016-07-08T09:48:09.368Z,1005.98
2016-07-08T09:49:09.360Z,1006.04
2016-07-08T09:50:09.355Z,1005.96
2016-07-08T09:51:09.346Z,1006.01
2016-07-08T09:52:09.340Z,1006.02
2016-07-08T09:53:09.335Z,1006.04
2016-07-08T09:54:09.328Z,1006.02
2016-07-08T09:55:09.320Z,1006
2016-07-08T09:56:09.314Z,1006.02
2016-07-08T09:57:09.308Z,1006.02
2016-07-08T09:58:09.301Z,1006.01
2016-07-08T09:59:09.294Z,1006.02
2016-07-08T10:00:09.288Z,1006.04
2016-07-08T10:01:09.281Z,1006.1
2016-07-08T10:02:09.274Z,1006.04
2016-07-08T10:03:09.273Z,1006.1
2016-07-08T10:04:09.267Z,1006.06
2016-07-08T10:05:09.255Z,1006.04
2016-07-08T10:06:09.248Z,1006.03
2016-07-08T10:07:09.241Z,1006.01
2016-07-08T10:08:09.235Z,1006.05
2016-07-08T10:09:09.228Z,1006.08
2016-07-08T10:10:09.221Z,1006.05
2016-07-08T10:11:09.216Z,1006.03
2016-07-08T10:12:09.209Z,1006.08
2016-07-08T10:13:09.202Z,1006.08
2016-07-08T10:14:09.196Z,1006.02
2016-07-08T10:15:09.188Z,1006.02
2016-07-08T10:16:09.185Z,1006.05
2016-07-08T10:17:09.175Z,1006.03
2016-07-08T10:18:09.169Z,1006.02
2016-07-08T10:19:09.162Z,1006.02
2016-07-08T10:20:09.155Z,1006
2016-07-08T10:21:09.150Z,1006.09
2016-07-08T10:22:09.142Z,1006.1
2016-07-08T10:23:09.139Z,1006.04
2016-07-08T10:24:09.129Z,1006.01
2016-07-08T10:25:09.122Z,1005.97
2016-07-08T10:26:09.116Z,1006.07
2016-07-08T10:27:09.113Z,1006.04
2016-07-08T10:28:09.104Z,1006.03
2016-07-08T10:29:09.097Z,1006.08
2016-07-08T10:30:09.092Z,1006.03
2016-07-08T10:31:09.083Z,1005.99
2016-07-08T10:32:09.076Z,1006.01
2016-07-08T10:33:09.070Z,1006.04
2016-07-08T10:34:09.064Z,1006
2016-07-08T10:35:09.058Z,1006.02
2016-07-08T10:36:09.051Z,1006
2016-07-08T10:37:09.046Z,1006.03
2016-07-08T10:38:09.037Z,1006.02
2016-07-08T10:39:09.030Z,1006.02
2016-07-08T10:40:09.024Z,1005.97
2016-07-08T10:41:09.017Z,1005.95
2016-07-08T10:42:09.012Z,1006
2016-07-08T10:43:09.005Z,1005.98
2016-07-08T10:44:08.999Z,1005.96
2016-07-08T10:45:08.991Z,1005.97
2016-07-08T10:46:08.986Z,1005.99
2016-07-08T10:47:08.981Z,1005.99
2016-07-08T10:48:08.973Z,1005.99
2016-07-08T10:49:08.967Z,1005.99
2016-07-08T10:50:08.959Z,1005.95
2016-07-08T10:51:08.956Z,1006.01
2016-07-08T10:52:08.949Z,1006
2016-07-08T10:53:08.940Z,1005.96
2016-07-08T10:54:08.932Z,1005.97
2016-07-08T10:55:08.926Z,1006.03
2016-07-08T10:56:08.921Z,1005.96
2016-07-08T10:57:08.913Z,1006.02
2016-07-08T10:58:08.908Z,1006.09
2016-07-08T10:59:08.902Z,1006.11
2016-07-08T11:00:08.896Z,1006.16
2016-07-08T11:01:08.890Z,1006.21
2016-07-08T11:02:08.882Z,1006.19
2016-07-08T11:03:08.876Z,1006.15
2016-07-08T11:04:08.869Z,1006.09
2016-07-08T11:05:08.863Z,1006.19
2016-07-08T11:06:08.857Z,1006.29
2016-07-08T11:07:08.852Z,1006.22
2016-07-08T11:08:08.844Z,1006.25
2016-07-08T11:09:08.840Z,1006.28
2016-07-08T11:10:08.832Z,1006.34
2016-07-08T11:11:08.824Z,1006.38
2016-07-08T11:12:08.820Z,1006.36
2016-07-08T11:13:08.813Z,1006.43
2016-07-08T11:14:08.807Z,1006.36
2016-07-08T11:15:08.800Z,1006.41
2016-07-08T11:16:08.798Z,1006.43
2016-07-08T11:17:08.789Z,1006.47
2016-07-08T11:18:08.789Z,1006.4
2016-07-08T11:19:08.785Z,1006.44
2016-07-08T11:20:08.772Z,1006.51
2016-07-08T11:21:08.768Z,1006.52
2016-07-08T11:22:08.763Z,1006.41
2016-07-08T11:23:08.757Z,1006.44
2016-07-08T11:24:08.754Z,1006.41
2016-07-08T11:25:08.750Z,1006.55
2016-07-08T11:26:08.743Z,1006.43
2016-07-08T11:27:08.738Z,1006.38
2016-07-08T11:28:08.732Z,1006.35
2016-07-08T11:29:08.727Z,1006.37
2016-07-08T11:30:08.722Z,1006.4
2016-07-08T11:31:08.717Z,1006.37
2016-07-08T11:32:08.712Z,1006.41
2016-07-08T11:33:08.705Z,1006.43
2016-07-08T11:34:08.710Z,1006.39
2016-07-08T11:35:08.695Z,1006.44
2016-07-08T11:36:08.696Z,1006.36
2016-07-08T11:37:08.696Z,1006.41
2016-07-08T11:38:08.680Z,1006.39
2016-07-08T11:39:08.675Z,1006.42
2016-07-08T11:40:08.666Z,1006.46
2016-07-08T11:41:08.660Z,1006.45
2016-07-08T11:42:08.656Z,1006.47
2016-07-08T11:43:08.649Z,1006.55
2016-07-08T11:44:08.644Z,1006.6
2016-07-08T11:45:08.638Z,1006.58
2016-07-08T11:46:08.631Z,1006.51
2016-07-08T11:47:08.625Z,1006.46
2016-07-08T11:48:08.628Z,1006.53
2016-07-08T11:49:08.615Z,1006.5
2016-07-08T11:50:08.607Z,1006.59
2016-07-08T11:51:08.599Z,1006.46
2016-07-08T11:52:08.594Z,1006.53
2016-07-08T11:53:08.590Z,1006.52
2016-07-08T11:54:08.582Z,1006.47
2016-07-08T11:55:08.578Z,1006.55
2016-07-08T11:56:08.571Z,1006.5
2016-07-08T11:57:08.564Z,1006.54
2016-07-08T11:58:08.559Z,1006.38
2016-07-08T11:59:08.551Z,1006.36
2016-07-08T12:00:08.574Z,1006.34
2016-07-08T12:01:08.549Z,1006.32
2016-07-08T12:02:08.536Z,1006.39
2016-07-08T12:03:08.530Z,1006.37
2016-07-08T12:04:08.523Z,1006.43
2016-07-08T12:05:08.517Z,1006.52
2016-07-08T12:06:08.510Z,1006.41
2016-07-08T12:07:08.507Z,1006.47
2016-07-08T12:08:08.500Z,1006.53
2016-07-08T12:09:08.493Z,1006.4